METAR Data
IDs: Format: Raw Decoded Include TAF

Data at: 0247 UTC 19 Oct 2021

EGDY 190150Z AUTO 19006KT 9999 OVC005/// 17/16 Q1013